sensor_id;sensor_type;location;lat;lon;timestamp;pressure;altitude;pressure_sealevel;temperature;humidity
34177;BME280;20450;49.074;9.158;2023-05-23T00:00:58;99531.28;;;19.79;75.59
34177;BME280;20450;49.074;9.158;2023-05-23T00:03:25;99534.56;;;19.71;75.79
34177;BME280;20450;49.074;9.158;2023-05-23T00:05:54;99527.44;;;19.75;75.91
34177;BME280;20450;49.074;9.158;2023-05-23T00:08:21;99525.81;;;19.74;76.06
34177;BME280;20450;49.074;9.158;2023-05-23T00:10:48;99519.78;;;19.72;76.33
34177;BME280;20450;49.074;9.158;2023-05-23T00:13:15;99522.53;;;19.67;76.48
34177;BME280;20450;49.074;9.158;2023-05-23T00:15:42;99515.41;;;19.61;76.55
34177;BME280;20450;49.074;9.158;2023-05-23T00:18:10;99526.91;;;19.63;76.60
34177;BME280;20450;49.074;9.158;2023-05-23T00:20:39;99517.06;;;19.57;76.73
34177;BME280;20450;49.074;9.158;2023-05-23T00:23:12;99528.31;;;19.45;77.19
34177;BME280;20450;49.074;9.158;2023-05-23T00:25:39;99523.38;;;19.42;77.21
34177;BME280;20450;49.074;9.158;2023-05-23T00:28:07;99521.47;;;19.27;77.87
34177;BME280;20450;49.074;9.158;2023-05-23T00:30:34;99532.41;;;19.17;78.28
34177;BME280;20450;49.074;9.158;2023-05-23T00:33:01;99521.16;;;19.14;78.41
34177;BME280;20450;49.074;9.158;2023-05-23T00:35:28;99520.06;;;19.20;78.40
34177;BME280;20450;49.074;9.158;2023-05-23T00:37:55;99526.34;;;19.15;78.56
34177;BME280;20450;49.074;9.158;2023-05-23T00:40:25;99529.66;;;19.17;78.40
34177;BME280;20450;49.074;9.158;2023-05-23T00:42:52;99533.75;;;19.15;78.88
34177;BME280;20450;49.074;9.158;2023-05-23T00:45:20;99529.38;;;19.14;78.71
34177;BME280;20450;49.074;9.158;2023-05-23T00:47:47;99534.59;;;19.10;78.78
34177;BME280;20450;49.074;9.158;2023-05-23T00:50:15;99543.88;;;19.09;78.63
34177;BME280;20450;49.074;9.158;2023-05-23T00:52:44;99542.78;;;19.05;79.20
34177;BME280;20450;49.074;9.158;2023-05-23T00:55:13;99545.50;;;19.00;79.08
34177;BME280;20450;49.074;9.158;2023-05-23T00:57:42;99550.44;;;18.98;79.18
34177;BME280;20450;49.074;9.158;2023-05-23T01:00:11;99544.72;;;19.00;79.44
34177;BME280;20450;49.074;9.158;2023-05-23T01:02:43;99540.56;;;18.97;79.25
34177;BME280;20450;49.074;9.158;2023-05-23T01:05:12;99540.56;;;18.97;79.18
34177;BME280;20450;49.074;9.158;2023-05-23T01:07:40;99543.31;;;18.92;79.48
34177;BME280;20450;49.074;9.158;2023-05-23T01:10:08;99546.88;;;18.88;79.53
34177;BME280;20450;49.074;9.158;2023-05-23T01:12:43;99546.59;;;18.89;79.77
34177;BME280;20450;49.074;9.158;2023-05-23T01:15:24;99549.28;;;18.79;80.09
34177;BME280;20450;49.074;9.158;2023-05-23T01:18:01;99547.66;;;18.78;80.05
34177;BME280;20450;49.074;9.158;2023-05-23T01:20:38;99549.56;;;18.73;80.29
34177;BME280;20450;49.074;9.158;2023-05-23T01:23:26;99549.56;;;18.73;80.43
34177;BME280;20450;49.074;9.158;2023-05-23T01:26:31;99556.97;;;18.77;80.22
34177;BME280;20450;49.074;9.158;2023-05-23T01:29:10;99551.78;;;18.76;79.83
34177;BME280;20450;49.074;9.158;2023-05-23T01:31:45;99546.56;;;18.74;80.07
34177;BME280;20450;49.074;9.158;2023-05-23T01:34:18;99548.19;;;18.75;79.91
34177;BME280;20450;49.074;9.158;2023-05-23T01:36:49;99544.09;;;18.78;79.82
34177;BME280;20450;49.074;9.158;2023-05-23T01:39:19;99547.94;;;18.77;79.70
34177;BME280;20450;49.074;9.158;2023-05-23T01:41:47;99551.22;;;18.79;79.67
34177;BME280;20450;49.074;9.158;2023-05-23T01:44:16;99551.22;;;18.84;79.45
34177;BME280;20450;49.074;9.158;2023-05-23T01:46:47;99550.69;;;18.87;79.46
34177;BME280;20450;49.074;9.158;2023-05-23T01:49:16;99556.72;;;18.89;79.37
34177;BME280;20450;49.074;9.158;2023-05-23T01:51:45;99558.38;;;18.85;79.54
34177;BME280;20450;49.074;9.158;2023-05-23T01:54:14;99557.53;;;18.84;79.45
34177;BME280;20450;49.074;9.158;2023-05-23T01:56:43;99555.91;;;18.83;79.21
34177;BME280;20450;49.074;9.158;2023-05-23T01:59:11;99558.06;;;18.81;79.58
34177;BME280;20450;49.074;9.158;2023-05-23T02:01:40;99558.59;;;18.73;79.62
34177;BME280;20450;49.074;9.158;2023-05-23T02:04:14;99559.97;;;18.76;79.73
34177;BME280;20450;49.074;9.158;2023-05-23T02:06:47;99552.84;;;18.75;79.65
34177;BME280;20450;49.074;9.158;2023-05-23T02:09:17;99549.84;;;18.76;79.83
34177;BME280;20450;49.074;9.158;2023-05-23T02:11:44;99551.22;;;18.74;79.63
34177;BME280;20450;49.074;9.158;2023-05-23T02:14:11;99547.09;;;18.76;79.74
34177;BME280;20450;49.074;9.158;2023-05-23T02:16:40;99557.78;;;18.73;80.08
34177;BME280;20450;49.074;9.158;2023-05-23T02:19:07;99555.56;;;18.65;80.53
34177;BME280;20450;49.074;9.158;2023-05-23T02:21:35;99553.91;;;18.64;80.56
34177;BME280;20450;49.074;9.158;2023-05-23T02:24:03;99558.28;;;18.65;80.48
34177;BME280;20450;49.074;9.158;2023-05-23T02:26:30;99550.38;;;18.68;80.35
34177;BME280;20450;49.074;9.158;2023-05-23T02:28:57;99563.53;;;18.71;80.33
34177;BME280;20450;49.074;9.158;2023-05-23T02:31:25;99561.88;;;18.75;80.41
34177;BME280;20450;49.074;9.158;2023-05-23T02:33:53;99561.34;;;18.78;79.94
34177;BME280;20450;49.074;9.158;2023-05-23T02:36:20;99572.84;;;18.80;80.03
34177;BME280;20450;49.074;9.158;2023-05-23T02:38:48;99576.97;;;18.83;79.96
34177;BME280;20450;49.074;9.158;2023-05-23T02:41:16;99580.53;;;18.88;79.74
34177;BME280;20450;49.074;9.158;2023-05-23T02:43:44;99582.44;;;18.93;79.79
34177;BME280;20450;49.074;9.158;2023-05-23T02:46:12;99585.78;;;19.00;79.56
34177;BME280;20450;49.074;9.158;2023-05-23T02:48:39;99587.97;;;19.03;79.40
34177;BME280;20450;49.074;9.158;2023-05-23T02:51:08;99590.44;;;19.09;79.17
34177;BME280;20450;49.074;9.158;2023-05-23T02:53:35;99592.88;;;19.11;79.00
34177;BME280;20450;49.074;9.158;2023-05-23T02:56:02;99587.97;;;19.13;79.08
34177;BME280;20450;49.074;9.158;2023-05-23T02:58:31;99591.25;;;19.10;78.68
34177;BME280;20450;49.074;9.158;2023-05-23T03:00:58;99587.97;;;19.13;78.69
34177;BME280;20450;49.074;9.158;2023-05-23T03:03:25;99592.88;;;19.11;78.66
34177;BME280;20450;49.074;9.158;2023-05-23T03:05:52;99588.22;;;19.06;78.79
34177;BME280;20450;49.074;9.158;2023-05-23T03:11:41;99583.84;;;19.00;78.99
34177;BME280;20450;49.074;9.158;2023-05-23T03:14:10;99592.59;;;19.02;78.71
34177;BME280;20450;49.074;9.158;2023-05-23T03:16:38;99589.03;;;19.02;78.70
34177;BME280;20450;49.074;9.158;2023-05-23T03:19:06;99589.84;;;18.97;79.13
34177;BME280;20450;49.074;9.158;2023-05-23T03:21:33;99592.59;;;18.97;78.96
34177;BME280;20450;49.074;9.158;2023-05-23T03:24:02;99592.06;;;18.95;78.87
34177;BME280;20450;49.074;9.158;2023-05-23T03:26:29;99588.78;;;18.98;78.83
34177;BME280;20450;49.074;9.158;2023-05-23T03:28:56;99595.88;;;18.99;78.96
34177;BME280;20450;49.074;9.158;2023-05-23T03:31:23;99586.84;;;18.99;78.60
34177;BME280;20450;49.074;9.158;2023-05-23T03:33:50;99595.63;;;19.01;78.32
34177;BME280;20450;49.074;9.158;2023-05-23T03:36:18;99600.28;;;18.95;78.30
34177;BME280;20450;49.074;9.158;2023-05-23T03:38:44;99606.81;;;18.89;78.89
34177;BME280;20450;49.074;9.158;2023-05-23T03:41:13;99613.97;;;18.95;78.69
34177;BME280;20450;49.074;9.158;2023-05-23T03:43:40;99606.56;;;18.91;78.56
34177;BME280;20450;49.074;9.158;2023-05-23T03:46:07;99615.28;;;18.93;78.72
34177;BME280;20450;49.074;9.158;2023-05-23T03:48:34;99618.63;;;19.00;78.68
34177;BME280;20450;49.074;9.158;2023-05-23T03:51:02;99620.00;;;19.02;78.11
34177;BME280;20450;49.074;9.158;2023-05-23T03:53:29;99628.19;;;18.97;78.45
34177;BME280;20450;49.074;9.158;2023-05-23T03:55:57;99618.59;;;18.95;78.47
34177;BME280;20450;49.074;9.158;2023-05-23T03:58:25;99626.00;;;18.99;78.22
34177;BME280;20450;49.074;9.158;2023-05-23T04:00:59;99626.53;;;18.96;78.38
34177;BME280;20450;49.074;9.158;2023-05-23T04:03:29;99629.81;;;18.93;78.38
34177;BME280;20450;49.074;9.158;2023-05-23T04:05:56;99630.88;;;18.87;78.55
34177;BME280;20450;49.074;9.158;2023-05-23T04:08:23;99632.00;;;18.86;78.60
34177;BME280;20450;49.074;9.158;2023-05-23T04:10:50;99625.94;;;18.84;78.96
34177;BME280;20450;49.074;9.158;2023-05-23T04:13:18;99628.69;;;18.84;78.81
34177;BME280;20450;49.074;9.158;2023-05-23T04:15:46;99628.69;;;18.84;78.66
34177;BME280;20450;49.074;9.158;2023-05-23T04:18:14;99637.16;;;18.83;78.78
34177;BME280;20450;49.074;9.158;2023-05-23T04:20:41;99628.97;;;18.83;78.66
34177;BME280;20450;49.074;9.158;2023-05-23T04:23:10;99634.69;;;18.81;78.71
34177;BME280;20450;49.074;9.158;2023-05-23T04:25:39;99629.78;;;18.88;78.92
34177;BME280;20450;49.074;9.158;2023-05-23T04:28:16;99629.81;;;18.93;78.35
34177;BME280;20450;49.074;9.158;2023-05-23T04:30:44;99630.38;;;18.95;78.31
34177;BME280;20450;49.074;9.158;2023-05-23T04:33:13;99630.09;;;19.02;78.36
34177;BME280;20450;49.074;9.158;2023-05-23T04:35:40;99624.09;;;19.05;77.98
34177;BME280;20450;49.074;9.158;2023-05-23T04:38:08;99627.41;;;19.07;77.88
34177;BME280;20450;49.074;9.158;2023-05-23T04:40:36;99627.63;;;19.00;78.08
34177;BME280;20450;49.074;9.158;2023-05-23T04:43:13;99634.25;;;19.04;77.94
34177;BME280;20450;49.074;9.158;2023-05-23T04:45:56;99636.44;;;19.07;77.89
34177;BME280;20450;49.074;9.158;2023-05-23T04:48:30;99641.38;;;19.10;77.72
34177;BME280;20450;49.074;9.158;2023-05-23T04:50:58;99638.66;;;19.20;77.68
34177;BME280;20450;49.074;9.158;2023-05-23T04:53:26;99640.28;;;19.21;77.24
34177;BME280;20450;49.074;9.158;2023-05-23T04:55:53;99646.34;;;19.28;76.99
34177;BME280;20450;49.074;9.158;2023-05-23T04:58:21;99646.38;;;19.33;76.63
34177;BME280;20450;49.074;9.158;2023-05-23T05:00:48;99652.94;;;19.32;76.85
34177;BME280;20450;49.074;9.158;2023-05-23T05:03:17;99652.97;;;19.52;76.72
34177;BME280;20450;49.074;9.158;2023-05-23T05:05:47;99657.34;;;19.69;75.70
34177;BME280;20450;49.074;9.158;2023-05-23T05:08:14;99650.22;;;19.78;75.20
34177;BME280;20450;49.074;9.158;2023-05-23T05:10:43;99646.97;;;19.76;75.01
34177;BME280;20450;49.074;9.158;2023-05-23T05:13:11;99659.03;;;19.85;74.96
34177;BME280;20450;49.074;9.158;2023-05-23T05:15:46;99655.75;;;19.88;74.58
34177;BME280;20450;49.074;9.158;2023-05-23T05:18:21;99648.06;;;19.85;74.37
34177;BME280;20450;49.074;9.158;2023-05-23T05:20:53;99652.16;;;19.77;74.41
34177;BME280;20450;49.074;9.158;2023-05-23T05:23:23;99659.28;;;19.73;74.49
34177;BME280;20450;49.074;9.158;2023-05-23T05:25:51;99662.03;;;19.63;74.91
34177;BME280;20450;49.074;9.158;2023-05-23T05:28:19;99659.28;;;19.73;74.83
34177;BME280;20450;49.074;9.158;2023-05-23T05:30:49;99659.56;;;19.87;74.49
34177;BME280;20450;49.074;9.158;2023-05-23T05:33:16;99662.03;;;19.93;73.94
34177;BME280;20450;49.074;9.158;2023-05-23T05:35:43;99657.03;;;20.45;72.68
34177;BME280;20450;49.074;9.158;2023-05-23T05:38:12;99660.94;;;21.08;70.14
34177;BME280;20450;49.074;9.158;2023-05-23T05:40:39;99657.00;;;21.63;67.68
34177;BME280;20450;49.074;9.158;2023-05-23T05:43:07;99651.41;;;22.11;65.68
34177;BME280;20450;49.074;9.158;2023-05-23T05:45:34;99652.31;;;22.30;64.21
34177;BME280;20450;49.074;9.158;2023-05-23T05:48:02;99660.38;;;22.50;64.08
34177;BME280;20450;49.074;9.158;2023-05-23T05:50:29;99667.25;;;22.24;64.80
34177;BME280;20450;49.074;9.158;2023-05-23T05:52:59;99664.50;;;21.91;65.78
34177;BME280;20450;49.074;9.158;2023-05-23T05:55:28;99674.00;;;21.70;65.84
34177;BME280;20450;49.074;9.158;2023-05-23T05:57:55;99680.00;;;21.38;67.05
34177;BME280;20450;49.074;9.158;2023-05-23T06:00:24;99674.06;;;21.16;68.10
34177;BME280;20450;49.074;9.158;2023-05-23T06:02:54;99678.56;;;21.02;68.67
34177;BME280;20450;49.074;9.158;2023-05-23T06:05:45;99682.13;;;20.92;69.28
34177;BME280;20450;49.074;9.158;2023-05-23T06:08:12;99685.72;;;20.88;69.40
34177;BME280;20450;49.074;9.158;2023-05-23T06:11:27;99685.19;;;20.76;69.81
34177;BME280;20450;49.074;9.158;2023-05-23T06:13:54;99691.56;;;20.56;70.37
34177;BME280;20450;49.074;9.158;2023-05-23T06:16:22;99691.28;;;20.58;70.52
34177;BME280;20450;49.074;9.158;2023-05-23T06:18:49;99690.78;;;20.51;70.72
34177;BME280;20450;49.074;9.158;2023-05-23T06:21:17;99699.31;;;20.34;71.20
34177;BME280;20450;49.074;9.158;2023-05-23T06:23:47;99701.53;;;20.17;71.75
34177;BME280;20450;49.074;9.158;2023-05-23T06:26:14;99712.19;;;20.09;72.29
34177;BME280;20450;49.074;9.158;2023-05-23T06:28:44;99709.47;;;20.04;72.11
34177;BME280;20450;49.074;9.158;2023-05-23T06:31:14;99710.56;;;20.08;71.89
34177;BME280;20450;49.074;9.158;2023-05-23T06:33:41;99714.94;;;20.04;72.00
34177;BME280;20450;49.074;9.158;2023-05-23T06:36:09;99716.03;;;20.08;71.73
34177;BME280;20450;49.074;9.158;2023-05-23T06:38:36;99713.59;;;20.16;71.29
34177;BME280;20450;49.074;9.158;2023-05-23T06:41:04;99722.09;;;20.25;70.50
34177;BME280;20450;49.074;9.158;2023-05-23T06:43:33;99725.13;;;20.23;70.43
34177;BME280;20450;49.074;9.158;2023-05-23T06:46:23;99729.22;;;20.36;70.04
34177;BME280;20450;49.074;9.158;2023-05-23T06:48:50;99731.91;;;20.61;69.18
34177;BME280;20450;49.074;9.158;2023-05-23T06:51:38;99731.88;;;20.86;67.89
34177;BME280;20450;49.074;9.158;2023-05-23T06:54:05;99740.34;;;20.89;67.03
34177;BME280;20450;49.074;9.158;2023-05-23T06:56:32;99741.22;;;20.80;66.87
34177;BME280;20450;49.074;9.158;2023-05-23T06:58:59;99743.97;;;20.75;66.52
34177;BME280;20450;49.074;9.158;2023-05-23T07:01:28;99744.53;;;20.67;66.33
34177;BME280;20450;49.074;9.158;2023-05-23T07:03:55;99748.41;;;20.56;66.40
34177;BME280;20450;49.074;9.158;2023-05-23T07:06:23;99755.56;;;20.37;66.75
34177;BME280;20450;49.074;9.158;2023-05-23T07:08:51;99756.91;;;20.49;65.99
34177;BME280;20450;49.074;9.158;2023-05-23T07:11:20;99759.69;;;20.44;66.44
34177;BME280;20450;49.074;9.158;2023-05-23T07:13:52;99764.00;;;20.65;66.09
34177;BME280;20450;49.074;9.158;2023-05-23T07:16:32;99765.34;;;20.88;65.32
34177;BME280;20450;49.074;9.158;2023-05-23T07:19:02;99759.59;;;20.74;64.43
34177;BME280;20450;49.074;9.158;2023-05-23T07:21:31;99772.22;;;20.90;64.38
34177;BME280;20450;49.074;9.158;2023-05-23T07:23:58;99766.69;;;21.10;63.91
34177;BME280;20450;49.074;9.158;2023-05-23T07:26:26;99757.38;;;21.06;62.92
34177;BME280;20450;49.074;9.158;2023-05-23T07:28:55;99762.06;;;20.86;63.02
34177;BME280;20450;49.074;9.158;2023-05-23T07:31:22;99760.34;;;21.10;62.46
34177;BME280;20450;49.074;9.158;2023-05-23T07:33:53;99767.75;;;21.24;62.12
34177;BME280;20450;49.074;9.158;2023-05-23T07:36:28;99759.78;;;21.23;61.95
34177;BME280;20450;49.074;9.158;2023-05-23T07:38:56;99766.28;;;21.37;61.86
34177;BME280;20450;49.074;9.158;2023-05-23T07:41:23;99774.00;;;21.35;61.71
34177;BME280;20450;49.074;9.158;2023-05-23T07:43:50;99777.22;;;21.47;61.84
34177;BME280;20450;49.074;9.158;2023-05-23T07:46:17;99769.88;;;21.38;61.15
34177;BME280;20450;49.074;9.158;2023-05-23T07:48:44;99774.81;;;21.41;61.12
34177;BME280;20450;49.074;9.158;2023-05-23T07:51:14;99771.63;;;21.72;60.56
34177;BME280;20450;49.074;9.158;2023-05-23T07:53:42;99772.22;;;22.08;59.56
34177;BME280;20450;49.074;9.158;2023-05-23T07:56:11;99775.47;;;22.15;58.87
34177;BME280;20450;49.074;9.158;2023-05-23T07:58:40;99780.38;;;22.23;58.08
34177;BME280;20450;49.074;9.158;2023-05-23T08:01:10;99783.41;;;22.21;58.41
34177;BME280;20450;49.074;9.158;2023-05-23T08:04:00;99793.00;;;22.24;58.47
34177;BME280;20450;49.074;9.158;2023-05-23T08:06:34;99790.69;;;22.02;58.95
34177;BME280;20450;49.074;9.158;2023-05-23T08:09:05;99789.59;;;22.03;58.69
34177;BME280;20450;49.074;9.158;2023-05-23T08:11:37;99794.81;;;22.05;58.43
34177;BME280;20450;49.074;9.158;2023-05-23T08:14:05;99787.00;;;21.73;58.90
34177;BME280;20450;49.074;9.158;2023-05-23T08:16:38;99794.19;;;21.69;58.87
34177;BME280;20450;49.074;9.158;2023-05-23T08:19:10;99789.19;;;21.71;58.84
34177;BME280;20450;49.074;9.158;2023-05-23T08:21:39;99789.03;;;21.53;59.45
34177;BME280;20450;49.074;9.158;2023-05-23T08:24:06;99794.34;;;21.34;59.17
34177;BME280;20450;49.074;9.158;2023-05-23T08:26:34;99804.72;;;21.47;59.63
34177;BME280;20450;49.074;9.158;2023-05-23T08:29:03;99801.78;;;21.23;59.71
34177;BME280;20450;49.074;9.158;2023-05-23T08:31:31;99800.75;;;21.04;60.04
34177;BME280;20450;49.074;9.158;2023-05-23T08:34:04;99803.19;;;21.21;59.51
34177;BME280;20450;49.074;9.158;2023-05-23T08:36:34;99814.41;;;21.29;58.23
34177;BME280;20450;49.074;9.158;2023-05-23T08:39:04;99819.63;;;21.36;57.72
34177;BME280;20450;49.074;9.158;2023-05-23T08:41:35;99815.44;;;21.49;57.01
34177;BME280;20450;49.074;9.158;2023-05-23T08:44:07;99821.47;;;21.51;56.90
34177;BME280;20450;49.074;9.158;2023-05-23T08:46:43;99814.06;;;21.51;56.87
34177;BME280;20450;49.074;9.158;2023-05-23T08:49:23;99814.63;;;21.43;57.10
34177;BME280;20450;49.074;9.158;2023-05-23T08:51:58;99816.25;;;21.49;57.70
34177;BME280;20450;49.074;9.158;2023-05-23T08:54:33;99820.63;;;21.55;56.34
34177;BME280;20450;49.074;9.158;2023-05-23T08:57:03;99817.25;;;21.68;56.17
34177;BME280;20450;49.074;9.158;2023-05-23T08:59:37;99820.13;;;21.43;56.12
34177;BME280;20450;49.074;9.158;2023-05-23T09:02:07;99826.44;;;21.49;56.71
34177;BME280;20450;49.074;9.158;2023-05-23T09:04:36;99829.44;;;21.52;56.71
34177;BME280;20450;49.074;9.158;2023-05-23T09:07:12;99830.50;;;21.66;57.00
34177;BME280;20450;49.074;9.158;2023-05-23T09:09:46;99824.94;;;21.71;56.17
34177;BME280;20450;49.074;9.158;2023-05-23T09:12:17;99836.56;;;21.53;56.12
34177;BME280;20450;49.074;9.158;2023-05-23T09:15:32;99835.53;;;21.44;55.80
34177;BME280;20450;49.074;9.158;2023-05-23T09:18:00;99835.56;;;21.39;56.18
34177;BME280;20450;49.074;9.158;2023-05-23T09:20:29;99830.50;;;21.56;55.56
34177;BME280;20450;49.074;9.158;2023-05-23T09:23:04;99844.75;;;21.78;54.65
34177;BME280;20450;49.074;9.158;2023-05-23T09:25:37;99847.47;;;21.83;54.22
34177;BME280;20450;49.074;9.158;2023-05-23T09:28:12;99845.66;;;21.54;54.23
34177;BME280;20450;49.074;9.158;2023-05-23T09:30:39;99846.50;;;21.49;54.62
34177;BME280;20450;49.074;9.158;2023-05-23T09:33:14;99849.84;;;21.31;54.18
34177;BME280;20450;49.074;9.158;2023-05-23T09:35:43;99847.94;;;21.31;54.66
34177;BME280;20450;49.074;9.158;2023-05-23T09:38:10;99848.28;;;21.89;54.47
34177;BME280;20450;49.074;9.158;2023-05-23T09:40:44;99848.16;;;22.47;51.98
34177;BME280;20450;49.074;9.158;2023-05-23T09:43:16;99852.47;;;22.92;50.79
34177;BME280;20450;49.074;9.158;2023-05-23T09:45:43;99859.16;;;23.09;49.71
34177;BME280;20450;49.074;9.158;2023-05-23T09:48:11;99855.81;;;23.65;48.24
34177;BME280;20450;49.074;9.158;2023-05-23T09:50:38;99851.34;;;24.11;47.31
34177;BME280;20450;49.074;9.158;2023-05-23T09:53:06;99852.16;;;24.67;46.02
34177;BME280;20450;49.074;9.158;2023-05-23T09:55:33;99848.53;;;24.98;45.23
34177;BME280;20450;49.074;9.158;2023-05-23T09:58:02;99857.25;;;24.92;44.72
34177;BME280;20450;49.074;9.158;2023-05-23T10:00:30;99852.63;;;24.87;44.84
34177;BME280;20450;49.074;9.158;2023-05-23T10:03:08;99852.22;;;24.62;44.73
34177;BME280;20450;49.074;9.158;2023-05-23T10:05:40;99842.97;;;24.34;45.26
34177;BME280;20450;49.074;9.158;2023-05-23T10:08:13;99850.31;;;24.25;46.38
34177;BME280;20450;49.074;9.158;2023-05-23T10:14:05;99854.06;;;23.27;49.25
34177;BME280;20450;49.074;9.158;2023-05-23T10:16:41;99853.88;;;23.18;50.10
34177;BME280;20450;49.074;9.158;2023-05-23T10:19:20;99860.44;;;22.93;51.27
34177;BME280;20450;49.074;9.158;2023-05-23T10:21:55;99869.63;;;22.50;51.11
34177;BME280;20450;49.074;9.158;2023-05-23T10:24:24;99864.13;;;22.45;51.07
34177;BME280;20450;49.074;9.158;2023-05-23T10:26:52;99860.00;;;22.43;51.81
34177;BME280;20450;49.074;9.158;2023-05-23T10:29:22;99863.31;;;22.45;51.45
34177;BME280;20450;49.074;9.158;2023-05-23T10:31:51;99865.25;;;22.44;52.00
34177;BME280;20450;49.074;9.158;2023-05-23T10:34:24;99868.00;;;22.01;52.17
34177;BME280;20450;49.074;9.158;2023-05-23T10:37:01;99875.75;;;21.94;52.96
34177;BME280;20450;49.074;9.158;2023-05-23T10:39:39;99877.69;;;21.93;52.82
34177;BME280;20450;49.074;9.158;2023-05-23T10:42:21;99870.03;;;21.80;52.92
34177;BME280;20450;49.074;9.158;2023-05-23T10:45:13;99872.50;;;21.87;53.08
34177;BME280;20450;49.074;9.158;2023-05-23T10:47:40;99864.50;;;21.90;53.72
34177;BME280;20450;49.074;9.158;2023-05-23T10:50:11;99858.75;;;21.82;53.29
34177;BME280;20450;49.074;9.158;2023-05-23T10:55:55;99861.69;;;22.00;53.01
34177;BME280;20450;49.074;9.158;2023-05-23T10:58:22;99860.34;;;21.93;52.40
34177;BME280;20450;49.074;9.158;2023-05-23T11:00:52;99856.75;;;21.97;52.18
34177;BME280;20450;49.074;9.158;2023-05-23T11:03:33;99854.28;;;21.96;52.41
34177;BME280;20450;49.074;9.158;2023-05-23T11:06:02;99853.09;;;22.12;52.41
34177;BME280;20450;49.074;9.158;2023-05-23T11:08:36;99850.41;;;21.97;52.40
34177;BME280;20450;49.074;9.158;2023-05-23T11:11:14;99853.88;;;22.17;52.17
34177;BME280;20450;49.074;9.158;2023-05-23T11:13:58;99849.69;;;22.25;51.74
34177;BME280;20450;49.074;9.158;2023-05-23T11:16:31;99849.75;;;22.87;50.87
34177;BME280;20450;49.074;9.158;2023-05-23T11:19:25;99848.59;;;23.69;48.24
34177;BME280;20450;49.074;9.158;2023-05-23T11:21:55;99846.88;;;23.96;46.48
34177;BME280;20450;49.074;9.158;2023-05-23T11:24:47;99841.94;;;24.49;45.87
34177;BME280;20450;49.074;9.158;2023-05-23T11:27:15;99845.66;;;24.90;44.27
34177;BME280;20450;49.074;9.158;2023-05-23T11:29:42;99842.09;;;25.62;44.26
34177;BME280;20450;49.074;9.158;2023-05-23T11:32:11;99852.41;;;25.70;42.38
34177;BME280;20450;49.074;9.158;2023-05-23T11:34:43;99841.16;;;25.67;42.97
34177;BME280;20450;49.074;9.158;2023-05-23T11:37:10;99849.72;;;25.25;43.39
34177;BME280;20450;49.074;9.158;2023-05-23T11:39:37;99843.81;;;24.35;44.63
34177;BME280;20450;49.074;9.158;2023-05-23T11:42:04;99849.72;;;24.10;45.91
34177;BME280;20450;49.074;9.158;2023-05-23T11:44:31;99849.13;;;24.13;45.89
34177;BME280;20450;49.074;9.158;2023-05-23T11:47:00;99855.44;;;23.95;46.50
34177;BME280;20450;49.074;9.158;2023-05-23T11:49:29;99839.91;;;24.36;45.88
34177;BME280;20450;49.074;9.158;2023-05-23T11:51:57;99844.25;;;24.42;44.78
34177;BME280;20450;49.074;9.158;2023-05-23T11:54:25;99842.69;;;24.17;45.02
34177;BME280;20450;49.074;9.158;2023-05-23T11:56:53;99840.00;;;24.12;45.09
34177;BME280;20450;49.074;9.158;2023-05-23T11:59:22;99834.03;;;24.42;44.83
34177;BME280;20450;49.074;9.158;2023-05-23T12:01:52;99836.69;;;24.66;44.17
34177;BME280;20450;49.074;9.158;2023-05-23T12:04:19;99838.06;;;24.68;44.31
34177;BME280;20450;49.074;9.158;2023-05-23T12:06:48;99836.63;;;24.71;43.64
34177;BME280;20450;49.074;9.158;2023-05-23T12:09:15;99827.94;;;24.59;44.20
34177;BME280;20450;49.074;9.158;2023-05-23T12:11:43;99835.75;;;24.38;44.71
34177;BME280;20450;49.074;9.158;2023-05-23T12:14:14;99832.47;;;24.36;44.58
34177;BME280;20450;49.074;9.158;2023-05-23T12:16:43;99834.72;;;23.97;45.27
34177;BME280;20450;49.074;9.158;2023-05-23T12:19:11;99837.78;;;23.30;47.38
34177;BME280;20450;49.074;9.158;2023-05-23T12:21:40;99848.69;;;23.11;48.40
34177;BME280;20450;49.074;9.158;2023-05-23T12:24:15;99839.69;;;22.72;49.13
34177;BME280;20450;49.074;9.158;2023-05-23T12:26:47;99844.00;;;22.55;48.96
34177;BME280;20450;49.074;9.158;2023-05-23T12:29:18;99839.75;;;22.67;49.21
34177;BME280;20450;49.074;9.158;2023-05-23T12:31:49;99843.41;;;22.58;49.24
34177;BME280;20450;49.074;9.158;2023-05-23T12:34:19;99842.25;;;22.64;50.29
34177;BME280;20450;49.074;9.158;2023-05-23T12:36:48;99844.47;;;22.62;49.73
34177;BME280;20450;49.074;9.158;2023-05-23T12:39:25;99842.84;;;22.61;49.70
34177;BME280;20450;49.074;9.158;2023-05-23T12:42:06;99843.59;;;22.66;50.12
34177;BME280;20450;49.074;9.158;2023-05-23T12:44:34;99838.91;;;22.72;50.22
34177;BME280;20450;49.074;9.158;2023-05-23T12:47:02;99844.28;;;22.48;50.35
34177;BME280;20450;49.074;9.158;2023-05-23T12:49:29;99837.38;;;22.56;50.29
34177;BME280;20450;49.074;9.158;2023-05-23T12:51:56;99843.56;;;22.71;49.96
34177;BME280;20450;49.074;9.158;2023-05-23T12:54:24;99841.22;;;22.55;50.58
34177;BME280;20450;49.074;9.158;2023-05-23T12:56:51;99842.66;;;22.52;50.53
34177;BME280;20450;49.074;9.158;2023-05-23T12:59:18;99839.34;;;22.50;50.02
34177;BME280;20450;49.074;9.158;2023-05-23T13:01:45;99839.91;;;22.42;50.09
34177;BME280;20450;49.074;9.158;2023-05-23T13:04:12;99829.06;;;22.61;50.32
34177;BME280;20450;49.074;9.158;2023-05-23T13:06:39;99834.19;;;22.72;49.72
34177;BME280;20450;49.074;9.158;2023-05-23T13:09:06;99833.19;;;22.92;49.83
34177;BME280;20450;49.074;9.158;2023-05-23T13:11:35;99833.47;;;22.90;49.12
34177;BME280;20450;49.074;9.158;2023-05-23T13:14:02;99828.91;;;22.81;50.23
34177;BME280;20450;49.074;9.158;2023-05-23T13:16:29;99830.97;;;22.94;50.40
34177;BME280;20450;49.074;9.158;2023-05-23T13:18:56;99828.06;;;22.80;49.81
34177;BME280;20450;49.074;9.158;2023-05-23T13:21:23;99833.75;;;22.89;49.42
34177;BME280;20450;49.074;9.158;2023-05-23T13:23:50;99828.44;;;22.97;48.13
34177;BME280;20450;49.074;9.158;2023-05-23T13:26:17;99827.47;;;23.12;48.01